createdAt,value
2022-11-21T00:01:00.284Z,134.40
2022-11-21T00:04:16.619Z,131.58
2022-11-21T00:07:32.969Z,138.25
2022-11-21T00:10:50.074Z,140.95
2022-11-21T00:14:06.857Z,133.43
2022-11-21T00:17:23.010Z,137.28
2022-11-21T00:20:40.975Z,135.48
2022-11-21T00:23:59.591Z,134.00
2022-11-21T00:27:15.994Z,136.08
2022-11-21T00:30:32.403Z,128.33
2022-11-21T00:33:48.536Z,132.78
2022-11-21T00:37:04.809Z,132.40
2022-11-21T00:40:22.681Z,123.93
2022-11-21T00:43:39.915Z,130.33
2022-11-21T00:46:55.972Z,133.93
2022-11-21T00:50:13.353Z,127.75
2022-11-21T00:53:29.341Z,132.65
2022-11-21T00:56:45.708Z,130.10
2022-11-21T01:00:01.970Z,128.83
2022-11-21T01:03:19.349Z,130.13
2022-11-21T01:06:35.581Z,133.35
2022-11-21T01:09:52.053Z,137.85
2022-11-21T01:13:08.257Z,127.40
2022-11-21T01:16:27.963Z,136.98
2022-11-21T01:22:57.807Z,137.95
2022-11-21T01:26:15.795Z,134.00
2022-11-21T01:29:32.789Z,136.43
2022-11-21T01:32:48.889Z,131.70
2022-11-21T01:36:06.962Z,136.55
2022-11-21T01:39:23.054Z,140.78
2022-11-21T01:42:53.658Z,135.93
2022-11-21T01:46:17.772Z,133.98
2022-11-21T01:49:38.088Z,134.65
2022-11-21T01:52:54.332Z,126.20
2022-11-21T01:56:11.886Z,127.20
2022-11-21T01:59:32.372Z,120.98
2022-11-21T02:02:52.453Z,124.78
2022-11-21T02:06:09.121Z,128.40
2022-11-21T02:09:26.207Z,118.38
2022-11-21T02:12:46.818Z,119.20
2022-11-21T02:16:04.107Z,113.33
2022-11-21T02:19:26.114Z,111.95
2022-11-21T02:22:50.104Z,118.53
2022-11-21T02:26:06.605Z,110.60
2022-11-21T02:29:24.112Z,116.83
2022-11-21T02:32:47.642Z,111.38
2022-11-21T02:36:09.007Z,115.18
2022-11-21T02:39:29.720Z,110.60
2022-11-21T02:42:52.642Z,113.55
2022-11-21T02:46:08.000Z,110.03
2022-11-21T02:49:28.165Z,109.60
2022-11-21T02:52:44.628Z,113.28
2022-11-21T02:56:00.973Z,109.68
2022-11-21T02:59:17.348Z,110.50
2022-11-21T03:02:33.814Z,110.75
2022-11-21T03:05:50.890Z,105.95
2022-11-21T03:09:07.210Z,103.68
2022-11-21T03:12:23.487Z,103.80
2022-11-21T03:15:41.814Z,100.25
2022-11-21T03:18:58.776Z,102.68
2022-11-21T03:22:15.448Z,95.58
2022-11-21T03:25:32.089Z,101.08
2022-11-21T03:28:48.906Z,94.50
2022-11-21T03:32:05.072Z,102.90
2022-11-21T03:35:21.621Z,98.78
2022-11-21T03:38:37.767Z,97.93
2022-11-21T03:41:54.151Z,98.18
2022-11-21T03:45:10.935Z,101.13
2022-11-21T03:48:27.315Z,105.85
2022-11-21T03:51:46.056Z,99.73
2022-11-21T03:55:02.427Z,99.05
2022-11-21T03:58:18.982Z,95.35
2022-11-21T04:01:36.848Z,99.80
2022-11-21T04:04:53.945Z,102.57
2022-11-21T04:08:10.519Z,103.35
2022-11-21T04:11:27.442Z,105.95
2022-11-21T04:14:43.525Z,101.68
2022-11-21T04:17:59.872Z,107.18
2022-11-21T04:21:16.775Z,100.80
2022-11-21T04:24:32.945Z,104.40
2022-11-21T04:27:49.192Z,100.88
2022-11-21T04:31:11.073Z,105.80
2022-11-21T04:34:28.086Z,104.25
2022-11-21T04:37:47.049Z,101.83
2022-11-21T04:41:03.539Z,105.73
2022-11-21T04:44:19.727Z,105.50
2022-11-21T04:47:36.093Z,110.20
2022-11-21T04:50:52.810Z,112.38
2022-11-21T04:54:10.515Z,114.58
2022-11-21T04:57:26.729Z,109.78
2022-11-21T05:00:43.070Z,107.88
2022-11-21T05:03:59.903Z,110.10
2022-11-21T05:07:16.289Z,110.28
2022-11-21T05:10:34.926Z,113.33
2022-11-21T05:13:51.373Z,117.23
2022-11-21T05:17:07.497Z,117.25
2022-11-21T05:20:25.110Z,116.58
2022-11-21T05:23:42.361Z,119.10
2022-11-21T05:26:59.536Z,109.73
2022-11-21T05:30:18.821Z,117.23
2022-11-21T05:36:49.514Z,118.55
2022-11-21T05:40:06.151Z,112.15
2022-11-21T05:43:36.705Z,110.73
2022-11-21T05:46:53.532Z,111.88
2022-11-21T05:50:09.897Z,111.75
2022-11-21T05:53:26.502Z,114.18
2022-11-21T05:56:42.714Z,107.38
2022-11-21T05:59:59.061Z,113.53
2022-11-21T06:03:36.092Z,120.98
2022-11-21T06:06:52.947Z,117.63
2022-11-21T06:10:10.647Z,127.75
2022-11-21T06:13:27.666Z,127.85
2022-11-21T06:16:45.143Z,127.98
2022-11-21T06:20:02.141Z,124.10
2022-11-21T06:23:18.546Z,129.08
2022-11-21T06:26:35.794Z,125.93
2022-11-21T06:29:52.026Z,122.10
2022-11-21T06:33:10.367Z,125.10
2022-11-21T06:36:27.430Z,125.70
2022-11-21T06:39:45.847Z,130.13
2022-11-21T06:43:02.186Z,125.80
2022-11-21T06:46:19.819Z,124.68
2022-11-21T06:49:36.093Z,117.88
2022-11-21T06:52:52.443Z,127.65
2022-11-21T06:56:10.795Z,119.10
2022-11-21T06:59:27.899Z,110.10
2022-11-21T07:02:44.141Z,121.18
2022-11-21T07:06:02.474Z,122.23
2022-11-21T07:09:32.755Z,133.90
2022-11-21T07:12:50.865Z,125.68
2022-11-21T07:16:14.359Z,126.98
2022-11-21T07:19:32.574Z,129.58
2022-11-21T07:22:51.300Z,127.95
2022-11-21T07:26:13.470Z,130.28
2022-11-21T07:29:30.443Z,129.63
2022-11-21T07:32:56.315Z,125.40
2022-11-21T07:36:13.887Z,129.38
2022-11-21T07:39:31.099Z,135.60
2022-11-21T07:42:51.112Z,128.95
2022-11-21T07:46:12.264Z,132.15
2022-11-21T07:49:29.385Z,131.85
2022-11-21T07:52:47.231Z,134.43
2022-11-21T07:56:05.646Z,131.70
2022-11-21T07:59:21.997Z,129.08
2022-11-21T08:02:39.581Z,131.25
2022-11-21T08:05:56.327Z,124.40
2022-11-21T08:09:12.531Z,129.45
2022-11-21T08:12:47.687Z,126.25
2022-11-21T08:16:07.578Z,129.78
2022-11-21T08:19:26.468Z,128.63
2022-11-21T08:22:47.296Z,122.03
2022-11-21T08:26:04.455Z,121.65
2022-11-21T08:29:21.481Z,119.98
2022-11-21T08:32:37.976Z,115.23
2022-11-21T08:35:54.326Z,123.15
2022-11-21T08:39:12.347Z,117.68
2022-11-21T08:42:28.421Z,110.55
2022-11-21T08:45:46.207Z,112.13
2022-11-21T08:49:02.570Z,112.10
2022-11-21T08:52:19.654Z,116.93
2022-11-21T08:55:36.149Z,108.63
2022-11-21T08:58:56.893Z,107.45
2022-11-21T09:02:15.498Z,107.80
2022-11-21T09:05:33.336Z,108.40
2022-11-21T09:08:49.979Z,106.50
2022-11-21T09:12:06.212Z,107.73
2022-11-21T09:15:37.219Z,106.05
2022-11-21T09:18:53.600Z,113.70
2022-11-21T09:22:10.102Z,105.15
2022-11-21T09:25:26.610Z,106.25
2022-11-21T09:28:43.132Z,103.30
2022-11-21T09:31:59.498Z,102.73
2022-11-21T09:35:16.826Z,103.10
2022-11-21T09:38:34.227Z,97.85
2022-11-21T09:41:58.049Z,93.05
2022-11-21T09:45:19.600Z,96.63
2022-11-21T09:51:55.152Z,213.03
2022-11-21T09:55:20.945Z,99.75
2022-11-21T09:58:47.119Z,93.65
2022-11-21T10:08:31.002Z,86.93
2022-11-21T10:12:13.040Z,91.35
2022-11-21T10:15:47.084Z,100.15
2022-11-21T10:19:48.442Z,93.78
2022-11-21T10:23:55.050Z,315.88
2022-11-21T10:27:17.780Z,118.05
2022-11-21T10:30:35.064Z,103.25
2022-11-21T10:33:53.055Z,90.92
2022-11-21T10:37:17.540Z,94.00
2022-11-21T10:40:44.666Z,95.05
2022-11-21T10:44:21.643Z,98.48
2022-11-21T10:47:43.012Z,89.93
2022-11-21T10:51:11.693Z,90.43
2022-11-21T10:54:40.291Z,90.90
2022-11-21T10:57:58.129Z,88.68
2022-11-21T11:01:16.054Z,88.65
2022-11-21T11:04:43.907Z,83.45
2022-11-21T11:08:08.833Z,91.88
2022-11-21T11:11:31.344Z,99.15
2022-11-21T11:14:47.932Z,81.23
2022-11-21T11:18:09.763Z,88.30
2022-11-21T11:21:31.230Z,89.75
2022-11-21T11:24:51.091Z,89.05
2022-11-21T11:28:12.872Z,87.55
2022-11-21T11:31:30.267Z,89.05
2022-11-21T11:34:54.010Z,89.93
2022-11-21T11:38:13.678Z,81.70
2022-11-21T11:42:11.269Z,80.48
2022-11-21T11:46:01.248Z,84.05
2022-11-21T11:49:21.973Z,83.23
2022-11-21T11:52:41.716Z,82.25
2022-11-21T11:56:01.787Z,84.35
2022-11-21T11:59:27.139Z,85.50
2022-11-21T12:02:53.303Z,81.90
2022-11-21T12:06:36.170Z,75.08
2022-11-21T12:09:50.503Z,82.68
2022-11-21T12:13:12.116Z,86.60
2022-11-21T12:16:31.714Z,85.58
2022-11-21T12:19:49.649Z,87.40
2022-11-21T12:23:06.929Z,81.53
2022-11-21T12:26:49.758Z,82.23
2022-11-21T12:30:39.701Z,85.05
2022-11-21T12:34:03.104Z,83.20
2022-11-21T12:37:30.209Z,81.73
2022-11-21T12:40:56.359Z,82.10
2022-11-21T12:44:23.264Z,80.15
2022-11-21T12:48:18.089Z,79.18
2022-11-21T12:52:27.601Z,76.05
2022-11-21T12:55:48.012Z,83.42
2022-11-21T12:59:08.453Z,81.28
2022-11-21T13:02:35.831Z,84.58
2022-11-21T13:05:57.869Z,78.05
2022-11-21T13:09:24.769Z,81.95
2022-11-21T13:12:54.459Z,78.00
2022-11-21T13:16:23.960Z,77.43
2022-11-21T13:19:51.595Z,78.33
2022-11-21T13:23:10.225Z,84.23
2022-11-21T13:27:02.716Z,80.05
2022-11-21T13:30:34.409Z,83.75
2022-11-21T13:34:06.775Z,79.68
2022-11-21T13:37:56.359Z,82.03
2022-11-21T13:41:43.400Z,86.73
2022-11-21T13:45:00.511Z,90.03
2022-11-21T13:48:57.404Z,81.23
2022-11-21T13:52:17.999Z,79.98
2022-11-21T13:56:06.198Z,77.48
2022-11-21T13:59:47.110Z,83.38
2022-11-21T14:04:05.435Z,79.40
2022-11-21T14:07:36.223Z,76.20
2022-11-21T14:11:04.999Z,78.43
2022-11-21T14:14:46.181Z,76.70
2022-11-21T14:18:05.535Z,75.03
2022-11-21T14:25:27.130Z,73.53
2022-11-21T14:28:45.410Z,74.88
2022-11-21T14:32:02.683Z,78.80
2022-11-21T14:35:26.621Z,79.00
2022-11-21T14:39:35.318Z,79.75
2022-11-21T14:42:25.783Z,76.20
2022-11-21T14:45:42.100Z,77.25
2022-11-21T14:49:02.283Z,71.35
2022-11-21T14:52:31.800Z,77.68
2022-11-21T14:55:49.297Z,71.53
2022-11-21T14:59:10.139Z,73.18
2022-11-21T15:02:30.349Z,76.20
2022-11-21T15:06:01.910Z,69.18
2022-11-21T15:12:42.874Z,74.73
2022-11-21T15:16:01.366Z,75.30
2022-11-21T15:19:30.948Z,70.88
2022-11-21T15:22:49.820Z,73.28
2022-11-21T15:26:10.383Z,73.80
2022-11-21T15:29:31.551Z,74.55
2022-11-21T15:33:13.289Z,74.75
2022-11-21T15:36:32.912Z,77.30
2022-11-21T15:39:55.794Z,74.75
2022-11-21T15:43:43.497Z,72.33
2022-11-21T15:47:22.601Z,84.53
2022-11-21T15:50:38.828Z,86.35
2022-11-21T15:53:57.637Z,83.70
2022-11-21T15:57:29.396Z,82.45
2022-11-21T16:00:50.810Z,76.33
2022-11-21T16:04:42.362Z,76.03
2022-11-21T16:08:08.872Z,78.98
2022-11-21T16:14:39.991Z,77.98
2022-11-21T16:17:58.862Z,83.25
2022-11-21T16:21:17.994Z,77.90
2022-11-21T16:24:36.807Z,78.35
2022-11-21T16:28:44.443Z,83.73
2022-11-21T16:35:32.226Z,76.95
2022-11-21T16:38:54.315Z,79.50
2022-11-21T16:42:39.396Z,75.50
2022-11-21T16:46:01.169Z,76.53
2022-11-21T16:49:29.618Z,78.35
2022-11-21T16:52:47.717Z,80.22
2022-11-21T16:56:16.315Z,76.50
2022-11-21T16:59:34.568Z,77.58
2022-11-21T17:02:54.610Z,78.88
2022-11-21T17:06:16.523Z,78.00
2022-11-21T17:09:35.907Z,76.60
2022-11-21T17:12:53.540Z,76.95
2022-11-21T17:16:16.857Z,77.95
2022-11-21T17:19:33.461Z,76.28
2022-11-21T17:22:49.984Z,73.50
2022-11-21T17:26:11.049Z,79.45
2022-11-21T17:29:31.137Z,72.10
2022-11-21T17:32:48.977Z,72.95
2022-11-21T17:36:07.238Z,73.00
2022-11-21T17:39:29.459Z,78.60
2022-11-21T17:42:44.665Z,76.10
2022-11-21T17:46:11.833Z,72.80
2022-11-21T17:49:31.476Z,72.53
2022-11-21T17:52:51.021Z,68.45
2022-11-21T17:56:11.284Z,68.48
2022-11-21T17:59:30.373Z,68.75
2022-11-21T18:02:49.659Z,70.20
2022-11-21T18:06:24.269Z,72.40
2022-11-21T18:09:42.877Z,68.05
2022-11-21T18:13:01.170Z,67.65
2022-11-21T18:16:21.670Z,69.13
2022-11-21T18:19:38.111Z,72.83
2022-11-21T18:22:54.852Z,66.63
2022-11-21T18:26:18.600Z,64.98
2022-11-21T18:29:37.446Z,68.38
2022-11-21T18:32:59.383Z,62.25
2022-11-21T18:36:18.343Z,67.80
2022-11-21T18:39:39.659Z,67.48
2022-11-21T18:43:19.753Z,61.53
2022-11-21T18:47:47.740Z,64.93
2022-11-21T18:50:41.576Z,62.65
2022-11-21T18:54:04.860Z,65.65
2022-11-21T18:57:32.801Z,60.75
2022-11-21T19:04:45.434Z,61.83
2022-11-21T19:08:14.635Z,60.77
2022-11-21T19:11:36.400Z,66.75
2022-11-21T19:14:56.399Z,61.75
2022-11-21T19:18:18.349Z,67.33
2022-11-21T19:21:38.533Z,69.48
2022-11-21T19:24:59.142Z,62.98
2022-11-21T19:28:15.805Z,64.48
2022-11-21T19:31:39.083Z,65.25
2022-11-21T19:34:53.206Z,63.10
2022-11-21T19:38:10.178Z,69.68
2022-11-21T19:41:31.655Z,70.63
2022-11-21T19:44:47.997Z,68.70
2022-11-21T19:48:06.814Z,70.08
2022-11-21T19:51:26.228Z,63.85
2022-11-21T19:54:46.330Z,66.75
2022-11-21T19:58:03.060Z,66.28
2022-11-21T20:01:23.259Z,68.73
2022-11-21T20:04:41.118Z,81.53
2022-11-21T20:08:03.633Z,72.13
2022-11-21T20:11:22.198Z,81.10
2022-11-21T20:14:39.168Z,71.93
2022-11-21T20:18:00.894Z,66.43
2022-11-21T20:21:21.198Z,72.65
2022-11-21T20:24:41.672Z,69.73
2022-11-21T20:27:59.256Z,66.88
2022-11-21T20:31:21.383Z,74.55
2022-11-21T20:34:41.458Z,74.95
2022-11-21T20:41:43.011Z,63.35
2022-11-21T20:48:20.629Z,76.73
2022-11-21T20:54:59.999Z,65.80
2022-11-21T20:58:17.530Z,53.95
2022-11-21T21:01:34.676Z,41.85
2022-11-21T21:04:57.016Z,33.25
2022-11-21T21:08:14.598Z,31.33
2022-11-21T21:14:52.261Z,24.98
2022-11-21T21:18:09.881Z,26.85
2022-11-21T21:21:29.183Z,31.13
2022-11-21T21:24:45.616Z,28.05
2022-11-21T21:28:02.315Z,31.05
2022-11-21T21:31:22.697Z,33.40
2022-11-21T21:34:38.993Z,29.13
2022-11-21T21:37:55.699Z,34.63
2022-11-21T21:41:13.983Z,31.98
2022-11-21T21:44:33.564Z,34.48
2022-11-21T21:47:48.768Z,34.83
2022-11-21T21:51:14.108Z,34.85
2022-11-21T21:54:31.806Z,37.13
2022-11-21T21:57:52.492Z,36.98
2022-11-21T22:01:12.601Z,40.50
2022-11-21T22:04:29.705Z,34.70
2022-11-21T22:07:49.014Z,34.88
2022-11-21T22:14:29.803Z,33.40
2022-11-21T22:17:55.910Z,30.05
2022-11-21T22:21:22.483Z,39.80
2022-11-21T22:24:40.211Z,38.50
2022-11-21T22:27:56.864Z,37.78
2022-11-21T22:31:14.874Z,34.98
2022-11-21T22:34:34.444Z,29.58
2022-11-21T22:37:50.867Z,31.93
2022-11-21T22:41:14.222Z,31.60
2022-11-21T22:44:30.923Z,33.05
2022-11-21T22:47:48.324Z,33.50
2022-11-21T22:51:05.067Z,32.20
2022-11-21T22:54:21.941Z,33.93
2022-11-21T22:57:40.476Z,32.80
2022-11-21T23:00:56.869Z,26.87
2022-11-21T23:04:17.642Z,26.10
2022-11-21T23:07:32.881Z,27.00
2022-11-21T23:11:20.853Z,26.10
2022-11-21T23:14:38.598Z,25.30
2022-11-21T23:17:57.829Z,28.68
2022-11-21T23:21:16.829Z,30.73
2022-11-21T23:24:33.613Z,30.75
2022-11-21T23:27:50.422Z,28.78
2022-11-21T23:31:08.169Z,31.55
2022-11-21T23:34:24.672Z,32.28
2022-11-21T23:37:41.283Z,29.50
2022-11-21T23:41:01.046Z,30.10
2022-11-21T23:44:19.601Z,30.20
2022-11-21T23:47:36.147Z,31.33
2022-11-21T23:50:52.825Z,28.80
2022-11-21T23:54:09.702Z,29.65
2022-11-21T23:57:26.030Z,30.83
